sensor_id;sensor_type;location;lat;lon;timestamp;temperature;humidity
17178;DHT22;8704;52.006;4.374;2022-09-09T00:01:49;16.30;99.90
17178;DHT22;8704;52.006;4.374;2022-09-09T00:04:25;16.50;99.90
17178;DHT22;8704;52.006;4.374;2022-09-09T00:07:09;16.30;99.90
17178;DHT22;8704;52.006;4.374;2022-09-09T00:09:46;16.40;99.90
17178;DHT22;8704;52.006;4.374;2022-09-09T00:12:18;16.30;99.90
17178;DHT22;8704;52.006;4.374;2022-09-09T00:14:52;16.20;99.90
17178;DHT22;8704;52.006;4.374;2022-09-09T00:17:24;16.20;99.90
17178;DHT22;8704;52.006;4.374;2022-09-09T00:19:59;16.20;99.90
17178;DHT22;8704;52.006;4.374;2022-09-09T00:22:31;16.10;99.90
17178;DHT22;8704;52.006;4.374;2022-09-09T00:25:10;16.20;99.90
17178;DHT22;8704;52.006;4.374;2022-09-09T00:27:41;16.20;99.90
17178;DHT22;8704;52.006;4.374;2022-09-09T00:30:15;16.10;99.90
17178;DHT22;8704;52.006;4.374;2022-09-09T00:32:46;16.10;99.90
17178;DHT22;8704;52.006;4.374;2022-09-09T00:35:18;16.00;99.90
17178;DHT22;8704;52.006;4.374;2022-09-09T00:37:51;15.90;99.90
17178;DHT22;8704;52.006;4.374;2022-09-09T00:40:28;16.00;99.90
17178;DHT22;8704;52.006;4.374;2022-09-09T00:43:24;15.90;99.90
17178;DHT22;8704;52.006;4.374;2022-09-09T00:46:18;15.90;99.90
17178;DHT22;8704;52.006;4.374;2022-09-09T00:48:56;15.80;99.90
17178;DHT22;8704;52.006;4.374;2022-09-09T00:51:34;15.80;99.90
17178;DHT22;8704;52.006;4.374;2022-09-09T00:54:14;15.80;99.90
17178;DHT22;8704;52.006;4.374;2022-09-09T00:56:54;15.80;99.90
17178;DHT22;8704;52.006;4.374;2022-09-09T00:59:30;15.70;99.90
17178;DHT22;8704;52.006;4.374;2022-09-09T01:02:04;15.70;99.90
17178;DHT22;8704;52.006;4.374;2022-09-09T01:04:36;15.90;99.90
17178;DHT22;8704;52.006;4.374;2022-09-09T01:07:15;15.70;99.90
17178;DHT22;8704;52.006;4.374;2022-09-09T01:09:52;15.70;99.90
17178;DHT22;8704;52.006;4.374;2022-09-09T01:12:31;15.80;99.90
17178;DHT22;8704;52.006;4.374;2022-09-09T01:15:08;15.70;99.90
17178;DHT22;8704;52.006;4.374;2022-09-09T01:17:48;15.70;99.90
17178;DHT22;8704;52.006;4.374;2022-09-09T01:20:21;15.70;99.90
17178;DHT22;8704;52.006;4.374;2022-09-09T01:23:03;15.60;99.90
17178;DHT22;8704;52.006;4.374;2022-09-09T01:26:07;15.60;99.90
17178;DHT22;8704;52.006;4.374;2022-09-09T01:28:38;15.60;99.90
17178;DHT22;8704;52.006;4.374;2022-09-09T01:31:09;15.60;99.90
17178;DHT22;8704;52.006;4.374;2022-09-09T01:33:38;15.60;99.90
17178;DHT22;8704;52.006;4.374;2022-09-09T01:36:09;15.50;99.90
17178;DHT22;8704;52.006;4.374;2022-09-09T01:38:39;15.50;99.90
17178;DHT22;8704;52.006;4.374;2022-09-09T01:41:08;15.50;99.90
17178;DHT22;8704;52.006;4.374;2022-09-09T01:43:37;15.50;99.90
17178;DHT22;8704;52.006;4.374;2022-09-09T01:46:05;15.50;99.90
17178;DHT22;8704;52.006;4.374;2022-09-09T01:48:33;15.50;99.90
17178;DHT22;8704;52.006;4.374;2022-09-09T01:51:01;15.60;99.90
17178;DHT22;8704;52.006;4.374;2022-09-09T01:53:47;16.10;99.90
17178;DHT22;8704;52.006;4.374;2022-09-09T01:56:26;15.40;99.90
17178;DHT22;8704;52.006;4.374;2022-09-09T01:59:07;15.40;99.90
17178;DHT22;8704;52.006;4.374;2022-09-09T02:01:46;15.40;99.90
17178;DHT22;8704;52.006;4.374;2022-09-09T02:04:25;15.40;99.90
17178;DHT22;8704;52.006;4.374;2022-09-09T02:06:56;15.40;99.90
17178;DHT22;8704;52.006;4.374;2022-09-09T02:09:26;15.40;99.90
17178;DHT22;8704;52.006;4.374;2022-09-09T02:11:59;15.40;99.90
17178;DHT22;8704;52.006;4.374;2022-09-09T02:14:31;15.40;99.90
17178;DHT22;8704;52.006;4.374;2022-09-09T02:17:07;15.40;99.90
17178;DHT22;8704;52.006;4.374;2022-09-09T02:19:39;15.40;99.90
17178;DHT22;8704;52.006;4.374;2022-09-09T02:22:10;15.40;99.90
17178;DHT22;8704;52.006;4.374;2022-09-09T02:24:39;15.40;99.90
17178;DHT22;8704;52.006;4.374;2022-09-09T02:27:10;15.40;99.90
17178;DHT22;8704;52.006;4.374;2022-09-09T02:29:41;15.40;99.90
17178;DHT22;8704;52.006;4.374;2022-09-09T02:32:14;15.40;99.90
17178;DHT22;8704;52.006;4.374;2022-09-09T02:34:44;15.40;99.90
17178;DHT22;8704;52.006;4.374;2022-09-09T02:37:15;15.50;99.90
17178;DHT22;8704;52.006;4.374;2022-09-09T02:39:45;15.40;99.90
17178;DHT22;8704;52.006;4.374;2022-09-09T02:42:15;15.50;99.90
17178;DHT22;8704;52.006;4.374;2022-09-09T02:44:43;15.60;99.90
17178;DHT22;8704;52.006;4.374;2022-09-09T02:47:24;15.50;99.90
17178;DHT22;8704;52.006;4.374;2022-09-09T02:50:05;15.50;99.90
17178;DHT22;8704;52.006;4.374;2022-09-09T02:52:42;15.40;99.90
17178;DHT22;8704;52.006;4.374;2022-09-09T02:55:17;15.50;99.90
17178;DHT22;8704;52.006;4.374;2022-09-09T02:57:50;15.40;99.90
17178;DHT22;8704;52.006;4.374;2022-09-09T03:00:23;15.40;99.90
17178;DHT22;8704;52.006;4.374;2022-09-09T03:02:52;15.40;99.90
17178;DHT22;8704;52.006;4.374;2022-09-09T03:05:21;15.40;99.90
17178;DHT22;8704;52.006;4.374;2022-09-09T03:07:49;15.30;99.90
17178;DHT22;8704;52.006;4.374;2022-09-09T03:10:17;15.40;99.90
17178;DHT22;8704;52.006;4.374;2022-09-09T03:12:45;15.30;99.90
17178;DHT22;8704;52.006;4.374;2022-09-09T03:15:14;16.00;99.90
17178;DHT22;8704;52.006;4.374;2022-09-09T03:17:43;15.40;99.90
17178;DHT22;8704;52.006;4.374;2022-09-09T03:20:11;15.30;99.90
17178;DHT22;8704;52.006;4.374;2022-09-09T03:22:39;15.30;99.90
17178;DHT22;8704;52.006;4.374;2022-09-09T03:25:07;15.30;99.90
17178;DHT22;8704;52.006;4.374;2022-09-09T03:27:35;15.30;99.90
17178;DHT22;8704;52.006;4.374;2022-09-09T03:30:04;15.30;99.90
17178;DHT22;8704;52.006;4.374;2022-09-09T03:32:33;15.30;99.90
17178;DHT22;8704;52.006;4.374;2022-09-09T03:35:01;15.30;99.90
17178;DHT22;8704;52.006;4.374;2022-09-09T03:37:29;15.30;99.90
17178;DHT22;8704;52.006;4.374;2022-09-09T03:39:58;15.50;99.90
17178;DHT22;8704;52.006;4.374;2022-09-09T03:42:26;15.30;99.90
17178;DHT22;8704;52.006;4.374;2022-09-09T03:44:54;15.30;99.90
17178;DHT22;8704;52.006;4.374;2022-09-09T03:47:24;15.30;99.90
17178;DHT22;8704;52.006;4.374;2022-09-09T03:49:53;15.40;99.90
17178;DHT22;8704;52.006;4.374;2022-09-09T03:52:21;15.30;99.90
17178;DHT22;8704;52.006;4.374;2022-09-09T03:54:51;15.30;99.90
17178;DHT22;8704;52.006;4.374;2022-09-09T03:57:20;15.30;99.90
17178;DHT22;8704;52.006;4.374;2022-09-09T03:59:48;15.60;99.90
17178;DHT22;8704;52.006;4.374;2022-09-09T04:02:16;15.30;99.90
17178;DHT22;8704;52.006;4.374;2022-09-09T04:04:44;15.30;99.90
17178;DHT22;8704;52.006;4.374;2022-09-09T04:07:13;16.10;99.90
17178;DHT22;8704;52.006;4.374;2022-09-09T04:09:41;15.30;99.90
17178;DHT22;8704;52.006;4.374;2022-09-09T04:12:09;15.30;99.90
17178;DHT22;8704;52.006;4.374;2022-09-09T04:14:39;15.30;99.90
17178;DHT22;8704;52.006;4.374;2022-09-09T04:17:08;15.30;99.90
17178;DHT22;8704;52.006;4.374;2022-09-09T04:19:35;15.30;99.90
17178;DHT22;8704;52.006;4.374;2022-09-09T04:22:03;15.30;99.90
17178;DHT22;8704;52.006;4.374;2022-09-09T04:24:33;15.30;99.90
17178;DHT22;8704;52.006;4.374;2022-09-09T04:27:02;15.30;99.90
17178;DHT22;8704;52.006;4.374;2022-09-09T04:29:29;15.30;99.90
17178;DHT22;8704;52.006;4.374;2022-09-09T04:31:57;15.30;99.90
17178;DHT22;8704;52.006;4.374;2022-09-09T04:34:26;15.30;99.90
17178;DHT22;8704;52.006;4.374;2022-09-09T04:36:53;15.30;99.90
17178;DHT22;8704;52.006;4.374;2022-09-09T04:39:21;15.40;99.90
17178;DHT22;8704;52.006;4.374;2022-09-09T04:41:51;15.30;99.90
17178;DHT22;8704;52.006;4.374;2022-09-09T04:44:19;15.30;99.90
17178;DHT22;8704;52.006;4.374;2022-09-09T04:46:47;16.40;99.90
17178;DHT22;8704;52.006;4.374;2022-09-09T04:49:15;15.30;99.90
17178;DHT22;8704;52.006;4.374;2022-09-09T04:51:43;15.30;99.90
17178;DHT22;8704;52.006;4.374;2022-09-09T04:54:11;15.30;99.90
17178;DHT22;8704;52.006;4.374;2022-09-09T04:56:39;15.40;99.90
17178;DHT22;8704;52.006;4.374;2022-09-09T04:59:10;15.30;99.90
17178;DHT22;8704;52.006;4.374;2022-09-09T05:01:37;15.20;99.90
17178;DHT22;8704;52.006;4.374;2022-09-09T05:04:05;15.30;99.90
17178;DHT22;8704;52.006;4.374;2022-09-09T05:06:33;15.30;99.90
17178;DHT22;8704;52.006;4.374;2022-09-09T05:09:03;15.30;99.90
17178;DHT22;8704;52.006;4.374;2022-09-09T05:11:32;15.20;99.90
17178;DHT22;8704;52.006;4.374;2022-09-09T05:14:03;15.30;99.90
17178;DHT22;8704;52.006;4.374;2022-09-09T05:16:33;15.20;99.90
17178;DHT22;8704;52.006;4.374;2022-09-09T05:19:01;15.30;99.90
17178;DHT22;8704;52.006;4.374;2022-09-09T05:21:29;15.20;99.90
17178;DHT22;8704;52.006;4.374;2022-09-09T05:23:58;15.30;99.90
17178;DHT22;8704;52.006;4.374;2022-09-09T05:26:27;15.30;99.90
17178;DHT22;8704;52.006;4.374;2022-09-09T05:28:56;15.30;99.90
17178;DHT22;8704;52.006;4.374;2022-09-09T05:31:25;15.30;99.90
17178;DHT22;8704;52.006;4.374;2022-09-09T05:33:56;15.30;99.90
17178;DHT22;8704;52.006;4.374;2022-09-09T05:36:25;15.40;99.90
17178;DHT22;8704;52.006;4.374;2022-09-09T05:38:53;15.40;99.90
17178;DHT22;8704;52.006;4.374;2022-09-09T05:41:21;15.40;99.90
17178;DHT22;8704;52.006;4.374;2022-09-09T05:43:49;15.40;99.90
17178;DHT22;8704;52.006;4.374;2022-09-09T05:46:19;15.40;99.90
17178;DHT22;8704;52.006;4.374;2022-09-09T05:48:49;15.40;99.90
17178;DHT22;8704;52.006;4.374;2022-09-09T05:51:21;15.50;99.90
17178;DHT22;8704;52.006;4.374;2022-09-09T05:53:49;15.50;99.90
17178;DHT22;8704;52.006;4.374;2022-09-09T05:56:19;15.50;99.90
17178;DHT22;8704;52.006;4.374;2022-09-09T05:58:49;15.60;99.90
17178;DHT22;8704;52.006;4.374;2022-09-09T06:01:18;15.60;99.90
17178;DHT22;8704;52.006;4.374;2022-09-09T06:03:48;15.80;99.90
17178;DHT22;8704;52.006;4.374;2022-09-09T06:06:19;15.60;99.90
17178;DHT22;8704;52.006;4.374;2022-09-09T06:08:51;15.70;99.90
17178;DHT22;8704;52.006;4.374;2022-09-09T06:11:21;15.70;99.90
17178;DHT22;8704;52.006;4.374;2022-09-09T06:13:49;15.70;99.90
17178;DHT22;8704;52.006;4.374;2022-09-09T06:16:21;15.70;99.90
17178;DHT22;8704;52.006;4.374;2022-09-09T06:18:51;15.70;99.90
17178;DHT22;8704;52.006;4.374;2022-09-09T06:21:22;15.80;99.90
17178;DHT22;8704;52.006;4.374;2022-09-09T06:23:51;15.80;99.90
17178;DHT22;8704;52.006;4.374;2022-09-09T06:26:27;15.80;99.90
17178;DHT22;8704;52.006;4.374;2022-09-09T06:28:58;15.80;99.90
17178;DHT22;8704;52.006;4.374;2022-09-09T06:31:28;15.80;99.90
17178;DHT22;8704;52.006;4.374;2022-09-09T06:33:58;15.90;99.90
17178;DHT22;8704;52.006;4.374;2022-09-09T06:36:29;15.90;99.90
17178;DHT22;8704;52.006;4.374;2022-09-09T06:38:58;15.80;99.90
17178;DHT22;8704;52.006;4.374;2022-09-09T06:41:27;15.80;99.90
17178;DHT22;8704;52.006;4.374;2022-09-09T06:43:56;15.90;99.90
17178;DHT22;8704;52.006;4.374;2022-09-09T06:46:25;15.90;99.90
17178;DHT22;8704;52.006;4.374;2022-09-09T06:48:55;15.90;99.90
17178;DHT22;8704;52.006;4.374;2022-09-09T06:51:29;15.90;99.90
17178;DHT22;8704;52.006;4.374;2022-09-09T06:53:59;16.00;99.90
17178;DHT22;8704;52.006;4.374;2022-09-09T06:56:29;16.00;99.90
17178;DHT22;8704;52.006;4.374;2022-09-09T06:59:00;16.00;99.90
17178;DHT22;8704;52.006;4.374;2022-09-09T07:01:32;16.00;99.90
17178;DHT22;8704;52.006;4.374;2022-09-09T07:04:02;16.10;99.90
17178;DHT22;8704;52.006;4.374;2022-09-09T07:06:36;16.00;99.90
17178;DHT22;8704;52.006;4.374;2022-09-09T07:09:06;16.00;99.90
17178;DHT22;8704;52.006;4.374;2022-09-09T07:11:38;16.10;99.90
17178;DHT22;8704;52.006;4.374;2022-09-09T07:14:06;16.10;99.90
17178;DHT22;8704;52.006;4.374;2022-09-09T07:16:34;16.10;99.90
17178;DHT22;8704;52.006;4.374;2022-09-09T07:19:04;16.10;99.90
17178;DHT22;8704;52.006;4.374;2022-09-09T07:21:33;16.10;99.90
17178;DHT22;8704;52.006;4.374;2022-09-09T07:24:02;16.10;99.90
17178;DHT22;8704;52.006;4.374;2022-09-09T07:26:34;16.00;99.90
17178;DHT22;8704;52.006;4.374;2022-09-09T07:29:02;16.10;99.90
17178;DHT22;8704;52.006;4.374;2022-09-09T07:31:32;16.10;99.90
17178;DHT22;8704;52.006;4.374;2022-09-09T07:34:01;16.10;99.90
17178;DHT22;8704;52.006;4.374;2022-09-09T07:36:31;16.10;99.90
17178;DHT22;8704;52.006;4.374;2022-09-09T07:39:02;16.20;99.90
17178;DHT22;8704;52.006;4.374;2022-09-09T07:41:33;16.20;99.90
17178;DHT22;8704;52.006;4.374;2022-09-09T07:44:05;16.20;99.90
17178;DHT22;8704;52.006;4.374;2022-09-09T07:46:35;16.20;99.90
17178;DHT22;8704;52.006;4.374;2022-09-09T07:49:04;16.20;99.90
17178;DHT22;8704;52.006;4.374;2022-09-09T07:51:33;16.30;99.90
17178;DHT22;8704;52.006;4.374;2022-09-09T07:54:06;16.30;99.90
17178;DHT22;8704;52.006;4.374;2022-09-09T07:56:36;16.30;99.90
17178;DHT22;8704;52.006;4.374;2022-09-09T07:59:06;16.40;99.90
17178;DHT22;8704;52.006;4.374;2022-09-09T08:01:36;16.40;99.90
17178;DHT22;8704;52.006;4.374;2022-09-09T08:04:07;16.40;99.90
17178;DHT22;8704;52.006;4.374;2022-09-09T08:06:38;16.50;99.90
17178;DHT22;8704;52.006;4.374;2022-09-09T08:09:08;16.80;99.90
17178;DHT22;8704;52.006;4.374;2022-09-09T08:11:37;16.40;99.90
17178;DHT22;8704;52.006;4.374;2022-09-09T08:14:07;16.50;99.90
17178;DHT22;8704;52.006;4.374;2022-09-09T08:16:38;16.50;99.90
17178;DHT22;8704;52.006;4.374;2022-09-09T08:19:07;16.50;99.90
17178;DHT22;8704;52.006;4.374;2022-09-09T08:21:36;16.50;99.90
17178;DHT22;8704;52.006;4.374;2022-09-09T08:24:05;16.50;99.90
17178;DHT22;8704;52.006;4.374;2022-09-09T08:26:36;16.50;99.90
17178;DHT22;8704;52.006;4.374;2022-09-09T08:29:06;16.60;99.90
17178;DHT22;8704;52.006;4.374;2022-09-09T08:31:35;16.60;99.90
17178;DHT22;8704;52.006;4.374;2022-09-09T08:34:05;16.80;99.90
17178;DHT22;8704;52.006;4.374;2022-09-09T08:36:36;16.60;99.90
17178;DHT22;8704;52.006;4.374;2022-09-09T08:39:05;16.60;99.90
17178;DHT22;8704;52.006;4.374;2022-09-09T08:42:05;16.70;99.90
17178;DHT22;8704;52.006;4.374;2022-09-09T08:44:46;16.70;99.90
17178;DHT22;8704;52.006;4.374;2022-09-09T08:47:23;16.70;99.90
17178;DHT22;8704;52.006;4.374;2022-09-09T08:50:07;16.80;99.90
17178;DHT22;8704;52.006;4.374;2022-09-09T08:52:48;16.80;99.90
17178;DHT22;8704;52.006;4.374;2022-09-09T08:55:24;16.80;99.90
17178;DHT22;8704;52.006;4.374;2022-09-09T08:57:57;16.80;99.90
17178;DHT22;8704;52.006;4.374;2022-09-09T09:00:32;16.80;99.90
17178;DHT22;8704;52.006;4.374;2022-09-09T09:03:07;16.80;99.90
17178;DHT22;8704;52.006;4.374;2022-09-09T09:05:44;16.80;99.90
17178;DHT22;8704;52.006;4.374;2022-09-09T09:08:20;16.80;99.90
17178;DHT22;8704;52.006;4.374;2022-09-09T09:10:55;16.80;99.90
17178;DHT22;8704;52.006;4.374;2022-09-09T09:13:30;16.80;99.90
17178;DHT22;8704;52.006;4.374;2022-09-09T09:16:16;16.80;99.90
17178;DHT22;8704;52.006;4.374;2022-09-09T09:18:45;16.90;99.90
17178;DHT22;8704;52.006;4.374;2022-09-09T09:21:16;16.90;99.90
17178;DHT22;8704;52.006;4.374;2022-09-09T09:23:54;16.90;99.90
17178;DHT22;8704;52.006;4.374;2022-09-09T09:26:25;17.00;99.90
17178;DHT22;8704;52.006;4.374;2022-09-09T09:28:56;17.00;99.90
17178;DHT22;8704;52.006;4.374;2022-09-09T09:31:26;17.10;99.90
17178;DHT22;8704;52.006;4.374;2022-09-09T09:33:55;17.10;99.90
17178;DHT22;8704;52.006;4.374;2022-09-09T09:36:34;17.20;99.90
17178;DHT22;8704;52.006;4.374;2022-09-09T09:39:03;17.30;99.90
17178;DHT22;8704;52.006;4.374;2022-09-09T09:41:52;17.30;99.90
17178;DHT22;8704;52.006;4.374;2022-09-09T09:44:27;17.30;99.90
17178;DHT22;8704;52.006;4.374;2022-09-09T09:47:06;17.40;99.90
17178;DHT22;8704;52.006;4.374;2022-09-09T09:49:34;17.30;99.90
17178;DHT22;8704;52.006;4.374;2022-09-09T09:52:03;17.30;99.90
17178;DHT22;8704;52.006;4.374;2022-09-09T09:54:33;17.40;99.90
17178;DHT22;8704;52.006;4.374;2022-09-09T09:57:09;17.30;99.90
17178;DHT22;8704;52.006;4.374;2022-09-09T09:59:39;17.10;99.90
17178;DHT22;8704;52.006;4.374;2022-09-09T10:02:15;17.10;99.90
17178;DHT22;8704;52.006;4.374;2022-09-09T10:04:43;17.30;99.90
17178;DHT22;8704;52.006;4.374;2022-09-09T10:07:16;17.10;99.90
17178;DHT22;8704;52.006;4.374;2022-09-09T10:09:45;17.00;99.90
17178;DHT22;8704;52.006;4.374;2022-09-09T10:12:23;17.00;99.90
17178;DHT22;8704;52.006;4.374;2022-09-09T10:15:03;16.90;99.90
17178;DHT22;8704;52.006;4.374;2022-09-09T10:17:39;16.90;99.90
17178;DHT22;8704;52.006;4.374;2022-09-09T10:20:21;17.90;99.90
17178;DHT22;8704;52.006;4.374;2022-09-09T10:23:05;16.90;99.90
17178;DHT22;8704;52.006;4.374;2022-09-09T10:25:43;16.90;99.90
17178;DHT22;8704;52.006;4.374;2022-09-09T10:28:33;16.90;99.90
17178;DHT22;8704;52.006;4.374;2022-09-09T10:31:15;17.00;99.90
17178;DHT22;8704;52.006;4.374;2022-09-09T10:33:50;17.00;99.90
17178;DHT22;8704;52.006;4.374;2022-09-09T10:36:21;17.10;99.90
17178;DHT22;8704;52.006;4.374;2022-09-09T10:38:53;17.10;99.90
17178;DHT22;8704;52.006;4.374;2022-09-09T10:41:38;17.20;99.90
17178;DHT22;8704;52.006;4.374;2022-09-09T10:44:41;17.20;99.90
17178;DHT22;8704;52.006;4.374;2022-09-09T10:47:37;17.20;99.90
17178;DHT22;8704;52.006;4.374;2022-09-09T10:50:23;17.30;99.90
17178;DHT22;8704;52.006;4.374;2022-09-09T10:53:18;17.40;99.90
17178;DHT22;8704;52.006;4.374;2022-09-09T10:55:53;17.50;99.90
17178;DHT22;8704;52.006;4.374;2022-09-09T10:58:28;17.50;99.90
17178;DHT22;8704;52.006;4.374;2022-09-09T11:01:02;17.60;99.90
17178;DHT22;8704;52.006;4.374;2022-09-09T11:03:39;17.60;99.90
17178;DHT22;8704;52.006;4.374;2022-09-09T11:06:14;17.70;99.90
17178;DHT22;8704;52.006;4.374;2022-09-09T11:08:45;17.60;99.90
17178;DHT22;8704;52.006;4.374;2022-09-09T11:11:18;17.60;99.90
17178;DHT22;8704;52.006;4.374;2022-09-09T11:13:53;18.30;99.90
17178;DHT22;8704;52.006;4.374;2022-09-09T11:16:27;17.50;99.90
17178;DHT22;8704;52.006;4.374;2022-09-09T11:19:00;17.50;99.90
17178;DHT22;8704;52.006;4.374;2022-09-09T11:21:33;17.50;99.90
17178;DHT22;8704;52.006;4.374;2022-09-09T11:24:22;17.50;99.90
17178;DHT22;8704;52.006;4.374;2022-09-09T11:26:54;17.50;99.90
17178;DHT22;8704;52.006;4.374;2022-09-09T11:29:49;17.50;99.90
17178;DHT22;8704;52.006;4.374;2022-09-09T11:35:31;17.50;99.90
17178;DHT22;8704;52.006;4.374;2022-09-09T11:38:16;17.50;99.90
17178;DHT22;8704;52.006;4.374;2022-09-09T11:40:46;17.50;99.90
17178;DHT22;8704;52.006;4.374;2022-09-09T11:43:18;17.60;99.90
17178;DHT22;8704;52.006;4.374;2022-09-09T11:45:51;17.80;99.90
17178;DHT22;8704;52.006;4.374;2022-09-09T11:48:31;17.60;99.90
17178;DHT22;8704;52.006;4.374;2022-09-09T11:51:04;17.60;99.90
17178;DHT22;8704;52.006;4.374;2022-09-09T11:53:48;17.60;99.90
17178;DHT22;8704;52.006;4.374;2022-09-09T11:56:25;17.70;99.90
17178;DHT22;8704;52.006;4.374;2022-09-09T11:58:58;17.80;99.90
17178;DHT22;8704;52.006;4.374;2022-09-09T12:01:38;17.80;99.90
17178;DHT22;8704;52.006;4.374;2022-09-09T12:04:17;17.90;99.90
17178;DHT22;8704;52.006;4.374;2022-09-09T12:06:51;17.90;99.90
17178;DHT22;8704;52.006;4.374;2022-09-09T12:09:25;18.00;99.90
17178;DHT22;8704;52.006;4.374;2022-09-09T12:12:06;18.00;99.90
17178;DHT22;8704;52.006;4.374;2022-09-09T12:14:36;18.10;99.90
17178;DHT22;8704;52.006;4.374;2022-09-09T12:17:26;18.20;99.90
17178;DHT22;8704;52.006;4.374;2022-09-09T12:20:11;18.20;99.90
17178;DHT22;8704;52.006;4.374;2022-09-09T12:23:13;18.20;99.90
17178;DHT22;8704;52.006;4.374;2022-09-09T12:26:03;18.20;99.90
17178;DHT22;8704;52.006;4.374;2022-09-09T12:28:41;18.20;99.90
17178;DHT22;8704;52.006;4.374;2022-09-09T12:31:14;18.20;99.90
17178;DHT22;8704;52.006;4.374;2022-09-09T12:33:46;18.20;99.90
17178;DHT22;8704;52.006;4.374;2022-09-09T12:36:16;18.10;99.90
17178;DHT22;8704;52.006;4.374;2022-09-09T12:38:48;18.10;99.90
17178;DHT22;8704;52.006;4.374;2022-09-09T12:41:21;18.20;99.90
17178;DHT22;8704;52.006;4.374;2022-09-09T12:43:50;18.20;99.90
17178;DHT22;8704;52.006;4.374;2022-09-09T12:46:26;18.40;99.90
17178;DHT22;8704;52.006;4.374;2022-09-09T12:48:58;18.10;99.90
17178;DHT22;8704;52.006;4.374;2022-09-09T12:51:28;18.10;99.90
17178;DHT22;8704;52.006;4.374;2022-09-09T12:53:58;18.30;99.90
17178;DHT22;8704;52.006;4.374;2022-09-09T12:56:29;18.30;99.90
17178;DHT22;8704;52.006;4.374;2022-09-09T12:58:58;18.50;99.90
17178;DHT22;8704;52.006;4.374;2022-09-09T13:01:29;18.70;99.90
17178;DHT22;8704;52.006;4.374;2022-09-09T13:03:58;18.70;99.90
17178;DHT22;8704;52.006;4.374;2022-09-09T13:06:27;18.90;99.90
17178;DHT22;8704;52.006;4.374;2022-09-09T13:08:58;18.80;99.90
17178;DHT22;8704;52.006;4.374;2022-09-09T13:11:30;18.80;99.90
17178;DHT22;8704;52.006;4.374;2022-09-09T13:13:59;18.80;99.90
17178;DHT22;8704;52.006;4.374;2022-09-09T13:16:29;18.90;99.90
17178;DHT22;8704;52.006;4.374;2022-09-09T13:19:01;18.80;99.90
17178;DHT22;8704;52.006;4.374;2022-09-09T13:21:33;18.90;99.90
17178;DHT22;8704;52.006;4.374;2022-09-09T13:24:04;18.80;99.90
17178;DHT22;8704;52.006;4.374;2022-09-09T13:26:34;18.90;99.90
17178;DHT22;8704;52.006;4.374;2022-09-09T13:29:16;18.70;99.90
17178;DHT22;8704;52.006;4.374;2022-09-09T13:31:48;18.60;99.90
17178;DHT22;8704;52.006;4.374;2022-09-09T13:34:30;18.50;99.90
17178;DHT22;8704;52.006;4.374;2022-09-09T13:37:00;18.20;99.90
17178;DHT22;8704;52.006;4.374;2022-09-09T13:39:32;18.00;99.90
17178;DHT22;8704;52.006;4.374;2022-09-09T13:42:02;17.80;99.90
17178;DHT22;8704;52.006;4.374;2022-09-09T13:44:33;17.60;99.90
17178;DHT22;8704;52.006;4.374;2022-09-09T13:47:05;17.60;99.90
17178;DHT22;8704;52.006;4.374;2022-09-09T13:49:36;17.70;99.90
17178;DHT22;8704;52.006;4.374;2022-09-09T13:52:08;17.70;99.90
17178;DHT22;8704;52.006;4.374;2022-09-09T13:54:38;17.70;99.90
17178;DHT22;8704;52.006;4.374;2022-09-09T13:57:15;17.60;99.90
17178;DHT22;8704;52.006;4.374;2022-09-09T13:59:45;17.70;99.90
17178;DHT22;8704;52.006;4.374;2022-09-09T14:02:30;17.70;99.90
17178;DHT22;8704;52.006;4.374;2022-09-09T14:04:59;17.80;99.90
17178;DHT22;8704;52.006;4.374;2022-09-09T14:07:27;17.90;99.90
17178;DHT22;8704;52.006;4.374;2022-09-09T14:09:56;17.90;99.90
17178;DHT22;8704;52.006;4.374;2022-09-09T14:12:27;18.10;99.90
17178;DHT22;8704;52.006;4.374;2022-09-09T14:14:55;18.10;99.90
17178;DHT22;8704;52.006;4.374;2022-09-09T14:17:22;18.20;99.90
17178;DHT22;8704;52.006;4.374;2022-09-09T14:19:51;18.20;99.90
17178;DHT22;8704;52.006;4.374;2022-09-09T14:22:20;18.30;99.90
17178;DHT22;8704;52.006;4.374;2022-09-09T14:24:48;18.40;99.90
17178;DHT22;8704;52.006;4.374;2022-09-09T14:27:18;18.70;99.90
17178;DHT22;8704;52.006;4.374;2022-09-09T14:29:46;19.10;99.90
17178;DHT22;8704;52.006;4.374;2022-09-09T14:32:14;19.50;99.90
17178;DHT22;8704;52.006;4.374;2022-09-09T14:34:42;20.00;99.90
17178;DHT22;8704;52.006;4.374;2022-09-09T14:37:10;20.30;99.90
17178;DHT22;8704;52.006;4.374;2022-09-09T14:39:38;20.60;99.90
17178;DHT22;8704;52.006;4.374;2022-09-09T14:42:06;20.60;99.90
17178;DHT22;8704;52.006;4.374;2022-09-09T14:44:36;20.70;99.90
17178;DHT22;8704;52.006;4.374;2022-09-09T14:47:05;20.50;99.90
17178;DHT22;8704;52.006;4.374;2022-09-09T14:49:34;20.50;99.90
17178;DHT22;8704;52.006;4.374;2022-09-09T14:52:06;20.70;99.90
17178;DHT22;8704;52.006;4.374;2022-09-09T14:54:35;20.70;99.90
17178;DHT22;8704;52.006;4.374;2022-09-09T14:57:04;20.80;99.90
17178;DHT22;8704;52.006;4.374;2022-09-09T14:59:31;20.50;99.90
17178;DHT22;8704;52.006;4.374;2022-09-09T15:02:02;20.50;99.90
17178;DHT22;8704;52.006;4.374;2022-09-09T15:04:31;20.40;99.90
17178;DHT22;8704;52.006;4.374;2022-09-09T15:06:59;20.50;99.90
17178;DHT22;8704;52.006;4.374;2022-09-09T15:09:27;20.60;99.90
17178;DHT22;8704;52.006;4.374;2022-09-09T15:11:58;20.40;99.90
17178;DHT22;8704;52.006;4.374;2022-09-09T15:14:25;20.50;99.90
17178;DHT22;8704;52.006;4.374;2022-09-09T15:16:54;20.40;99.90
17178;DHT22;8704;52.006;4.374;2022-09-09T15:19:23;20.30;99.90
17178;DHT22;8704;52.006;4.374;2022-09-09T15:21:51;20.20;99.90
17178;DHT22;8704;52.006;4.374;2022-09-09T15:24:19;20.30;99.90
17178;DHT22;8704;52.006;4.374;2022-09-09T15:26:47;20.00;99.90
17178;DHT22;8704;52.006;4.374;2022-09-09T15:29:17;20.00;99.90
17178;DHT22;8704;52.006;4.374;2022-09-09T15:31:45;19.90;99.90
17178;DHT22;8704;52.006;4.374;2022-09-09T15:34:14;19.80;99.90
17178;DHT22;8704;52.006;4.374;2022-09-09T15:36:44;19.70;99.90
17178;DHT22;8704;52.006;4.374;2022-09-09T15:39:13;19.60;99.90
17178;DHT22;8704;52.006;4.374;2022-09-09T15:41:43;19.50;99.90
17178;DHT22;8704;52.006;4.374;2022-09-09T15:44:11;19.50;99.90
17178;DHT22;8704;52.006;4.374;2022-09-09T15:46:40;19.20;99.90
17178;DHT22;8704;52.006;4.374;2022-09-09T15:49:10;19.40;99.90
17178;DHT22;8704;52.006;4.374;2022-09-09T15:51:40;19.30;99.90
17178;DHT22;8704;52.006;4.374;2022-09-09T15:54:13;19.20;99.90
17178;DHT22;8704;52.006;4.374;2022-09-09T15:56:43;19.30;99.90
17178;DHT22;8704;52.006;4.374;2022-09-09T15:59:12;19.30;99.90
17178;DHT22;8704;52.006;4.374;2022-09-09T16:01:41;19.30;99.90
17178;DHT22;8704;52.006;4.374;2022-09-09T16:04:11;19.30;99.90
17178;DHT22;8704;52.006;4.374;2022-09-09T16:06:39;19.30;99.90
17178;DHT22;8704;52.006;4.374;2022-09-09T16:09:07;19.20;99.90
17178;DHT22;8704;52.006;4.374;2022-09-09T16:11:38;19.20;99.90
17178;DHT22;8704;52.006;4.374;2022-09-09T16:14:06;19.20;99.90
17178;DHT22;8704;52.006;4.374;2022-09-09T16:16:35;19.20;99.90
17178;DHT22;8704;52.006;4.374;2022-09-09T16:19:05;19.60;99.90
17178;DHT22;8704;52.006;4.374;2022-09-09T16:21:35;18.90;99.90